Time;durP1;ratioP1;P1;durP2;ratioP2;P2;SDS_P1;SDS_P2;PMS_P1;PMS_P2;Temp;Humidity;BMP_temperature;BMP_pressure;BME280_temperature;BME280_humidity;BME280_pressure;Samples;Min_cycle;Max_cycle;Signal;HPM_P1;HPM_P2
2022/03/09 00:01:46;;;;;;;;;;;2.20;72.00;;;;;;5033072;28;20383;-85
2022/03/09 00:04:12;;;;;;;;;;;2.30;71.30;;;;;;5032592;28;19913;-85
2022/03/09 00:06:37;;;;;;;;;;;2.40;71.10;;;;;;5032443;28;19914;-85
2022/03/09 00:09:03;;;;;;;;;;;2.40;70.50;;;;;;5032607;28;19917;-85
2022/03/09 00:11:28;;;;;;;;;;;2.30;69.90;;;;;;5018306;28;20391;-85
2022/03/09 00:13:54;;;;;;;;;;;2.20;70.30;;;;;;5014032;28;20457;-85
2022/03/09 00:16:20;;;;;;;;;;;2.10;70.60;;;;;;5019253;28;19913;-85
2022/03/09 00:18:45;;;;;;;;;;;2.10;70.50;;;;;;5035300;28;20264;-85
2022/03/09 00:21:11;;;;;;;;;;;2.00;70.80;;;;;;5036724;28;19988;-85
2022/03/09 00:23:36;;;;;;;;;;;1.90;71.00;;;;;;5036467;28;19917;-84
2022/03/09 00:26:02;;;;;;;;;;;1.40;71.90;;;;;;5022072;28;19917;-85
2022/03/09 00:28:28;;;;;;;;;;;1.30;73.30;;;;;;5020525;28;19913;-85
2022/03/09 00:30:53;;;;;;;;;;;1.20;73.40;;;;;;5035664;28;20417;-84
2022/03/09 00:33:19;;;;;;;;;;;1.20;74.70;;;;;;5032028;28;20385;-85
2022/03/09 00:35:44;;;;;;;;;;;1.30;76.00;;;;;;5016510;28;20387;-85
2022/03/09 00:38:10;;;;;;;;;;;1.40;75.80;;;;;;5016416;28;20394;-85
2022/03/09 00:40:36;;;;;;;;;;;1.50;75.30;;;;;;5023335;28;19917;-85
2022/03/09 00:43:01;;;;;;;;;;;1.40;75.70;;;;;;5036392;28;20313;-85
2022/03/09 00:45:27;;;;;;;;;;;1.30;76.50;;;;;;5036026;28;19909;-85
2022/03/09 00:47:52;;;;;;;;;;;1.20;77.60;;;;;;5036022;28;20480;-85
2022/03/09 00:50:18;;;;;;;;;;;1.20;77.60;;;;;;5029739;28;20292;-85
2022/03/09 00:52:45;;;;;;;;;;;1.30;77.60;;;;;;5016405;28;19920;-85
2022/03/09 00:55:10;;;;;;;;;;;1.40;77.60;;;;;;5019142;28;19941;-85
2022/03/09 00:57:36;;;;;;;;;;;1.50;75.90;;;;;;5035802;28;19909;-85
2022/03/09 01:00:03;;;;;;;;;;;1.60;74.20;;;;;;5032090;28;19913;-85
2022/03/09 01:02:28;;;;;;;;;;;1.70;73.70;;;;;;5014665;28;20321;-85
2022/03/09 01:04:54;;;;;;;;;;;1.50;74.50;;;;;;5015961;28;19917;-85
2022/03/09 01:07:20;;;;;;;;;;;1.20;75.00;;;;;;5015952;28;20286;-85
2022/03/09 01:09:45;;;;;;;;;;;1.20;74.90;;;;;;5022864;28;19913;-85
2022/03/09 01:12:11;;;;;;;;;;;1.00;74.90;;;;;;5035456;28;19920;-85
2022/03/09 01:14:37;;;;;;;;;;;0.90;76.40;;;;;;5035743;28;19960;-85
2022/03/09 01:17:02;;;;;;;;;;;1.00;77.80;;;;;;5035476;28;20390;-85
2022/03/09 01:19:28;;;;;;;;;;;1.00;77.50;;;;;;5027113;28;19963;-85
2022/03/09 01:21:54;;;;;;;;;;;1.00;77.40;;;;;;5030626;28;19913;-85
2022/03/09 01:24:19;;;;;;;;;;;1.10;78.00;;;;;;5031679;28;19976;-85
2022/03/09 01:26:45;;;;;;;;;;;1.20;78.00;;;;;;5015500;28;19910;-85
2022/03/09 01:29:11;;;;;;;;;;;1.30;77.50;;;;;;5019336;28;19955;-85
2022/03/09 01:31:37;;;;;;;;;;;1.40;76.10;;;;;;5028990;28;20016;-85
2022/03/09 01:34:03;;;;;;;;;;;1.50;75.00;;;;;;5035152;28;19909;-85
2022/03/09 01:36:28;;;;;;;;;;;1.20;73.60;;;;;;5035118;28;19917;-85
2022/03/09 01:38:54;;;;;;;;;;;0.80;74.50;;;;;;5033116;28;20290;-85
2022/03/09 01:41:20;;;;;;;;;;;0.80;74.90;;;;;;5026731;28;19913;-85
2022/03/09 01:44:03;;;;;;;;;;;0.90;77.50;;;;;;5015196;28;20310;-85
2022/03/09 01:46:29;;;;;;;;;;;1.00;76.80;;;;;;5015130;28;19932;-85
2022/03/09 01:48:54;;;;;;;;;;;0.90;77.30;;;;;;5016101;28;20371;-85
2022/03/09 01:51:20;;;;;;;;;;;0.70;77.20;;;;;;5032659;28;19923;-84
2022/03/09 01:53:45;;;;;;;;;;;0.70;77.70;;;;;;5034784;28;20354;-85
2022/03/09 01:56:11;;;;;;;;;;;0.50;78.90;;;;;;5020009;28;19967;-84
2022/03/09 01:58:39;;;;;;;;;;;0.50;78.90;;;;;;5034676;28;19909;-84
2022/03/09 02:01:05;;;;;;;;;;;0.50;78.70;;;;;;5034621;28;19918;-85
2022/03/09 02:03:30;;;;;;;;;;;0.70;78.30;;;;;;5034560;28;19909;-85
2022/03/09 02:05:56;;;;;;;;;;;0.80;77.80;;;;;;5032468;28;19909;-85
2022/03/09 02:11:06;;;;;;;;;;;1.10;77.20;;;;;;5018871;28;20429;-85
2022/03/09 02:13:36;;;;;;;;;;;1.10;77.10;;;;;;5014885;28;19910;-85
2022/03/09 02:16:01;;;;;;;;;;;1.20;76.50;;;;;;5015567;28;20343;-85
2022/03/09 02:18:27;;;;;;;;;;;1.20;75.60;;;;;;5014550;28;20015;-85
2022/03/09 02:20:53;;;;;;;;;;;1.10;75.00;;;;;;5014499;28;19955;-85
2022/03/09 02:23:18;;;;;;;;;;;1.10;74.90;;;;;;5014516;28;19909;-85
2022/03/09 02:25:44;;;;;;;;;;;1.00;74.90;;;;;;5019834;28;20040;-84
2022/03/09 02:28:10;;;;;;;;;;;0.80;75.40;;;;;;5032896;28;20282;-85
2022/03/09 02:30:35;;;;;;;;;;;0.70;76.70;;;;;;5033678;28;20067;-84
2022/03/09 02:33:01;;;;;;;;;;;0.20;76.50;;;;;;5034084;28;20022;-85
2022/03/09 02:35:26;;;;;;;;;;;0.00;79.60;;;;;;5025761;28;20514;-85
2022/03/09 02:37:52;;;;;;;;;;;-3276.70;79.40;;;;;;5014162;28;19913;-84
2022/03/09 02:40:17;;;;;;;;;;;0.00;80.60;;;;;;5018725;28;19953;-84
2022/03/09 02:42:43;;;;;;;;;;;0.10;80.30;;;;;;5033846;28;19917;-85
2022/03/09 02:45:11;;;;;;;;;;;0.20;79.50;;;;;;5028394;28;19914;-85
2022/03/09 02:47:40;;;;;;;;;;;0.20;78.70;;;;;;5015040;28;19913;-85
2022/03/09 02:50:06;;;;;;;;;;;0.00;78.50;;;;;;5013983;28;20355;-85
2022/03/09 02:52:31;;;;;;;;;;;-3276.70;79.30;;;;;;5013861;28;19921;-85
2022/03/09 02:54:57;;;;;;;;;;;0.00;80.40;;;;;;5014993;28;20317;-85
2022/03/09 02:57:22;;;;;;;;;;;0.00;81.40;;;;;;5013928;28;19952;-85
2022/03/09 02:59:49;;;;;;;;;;;0.10;81.30;;;;;;5013861;28;19917;-85
2022/03/09 03:02:14;;;;;;;;;;;0.30;80.80;;;;;;5013833;28;20374;-85
2022/03/09 03:04:40;;;;;;;;;;;0.40;79.80;;;;;;5014360;28;19956;-85
2022/03/09 03:07:05;;;;;;;;;;;0.40;79.80;;;;;;5014031;28;20355;-85
2022/03/09 03:09:31;;;;;;;;;;;0.20;79.90;;;;;;5012345;28;19909;-85
2022/03/09 03:11:57;;;;;;;;;;;0.10;80.10;;;;;;5020014;28;19921;-85
2022/03/09 03:14:22;;;;;;;;;;;0.10;80.70;;;;;;5013629;28;19914;-85
2022/03/09 03:16:48;;;;;;;;;;;0.30;80.80;;;;;;5031328;28;19916;-85
2022/03/09 03:19:13;;;;;;;;;;;0.30;80.00;;;;;;5033244;28;19917;-85
2022/03/09 03:21:39;;;;;;;;;;;0.20;80.50;;;;;;5033265;28;19909;-85
2022/03/09 03:24:05;;;;;;;;;;;0.20;80.60;;;;;;5033212;28;19909;-85
2022/03/09 03:26:30;;;;;;;;;;;0.20;79.20;;;;;;5017467;28;19956;-85
2022/03/09 03:28:58;;;;;;;;;;;0.20;79.50;;;;;;5013410;28;19913;-84
2022/03/09 03:31:24;;;;;;;;;;;0.20;80.30;;;;;;5018221;28;19933;-85
2022/03/09 03:33:49;;;;;;;;;;;0.30;80.10;;;;;;5033371;28;19913;-85
2022/03/09 03:36:15;;;;;;;;;;;0.40;79.60;;;;;;5033055;28;19909;-85
2022/03/09 03:38:41;;;;;;;;;;;0.40;79.40;;;;;;5033104;28;20391;-85
2022/03/09 03:41:06;;;;;;;;;;;0.30;79.30;;;;;;5022718;28;20152;-85
2022/03/09 03:43:32;;;;;;;;;;;0.40;79.10;;;;;;5013355;28;19936;-84
2022/03/09 03:45:57;;;;;;;;;;;0.50;78.40;;;;;;5013311;28;19909;-85
2022/03/09 03:48:23;;;;;;;;;;;0.60;77.20;;;;;;5016478;28;20013;-85
2022/03/09 03:50:49;;;;;;;;;;;0.60;76.50;;;;;;5020340;28;19917;-85
2022/03/09 03:53:14;;;;;;;;;;;0.70;75.80;;;;;;5037013;28;20363;-85
2022/03/09 03:55:40;;;;;;;;;;;0.70;75.40;;;;;;5032903;28;20252;-84
2022/03/09 03:58:05;;;;;;;;;;;0.50;75.30;;;;;;5017179;28;20442;-84
2022/03/09 04:00:31;;;;;;;;;;;0.40;75.90;;;;;;5021769;28;20459;-85
2022/03/09 04:02:56;;;;;;;;;;;0.20;76.60;;;;;;5036822;28;19913;-84
2022/03/09 04:05:22;;;;;;;;;;;0.10;77.30;;;;;;5036784;28;19909;-85
2022/03/09 04:07:47;;;;;;;;;;;0.00;77.90;;;;;;5036727;28;19909;-85
2022/03/09 04:10:13;;;;;;;;;;;-3276.70;78.10;;;;;;5034454;28;19988;-84
2022/03/09 04:12:39;;;;;;;;;;;-3276.70;78.00;;;;;;5018625;28;19918;-85
2022/03/09 04:15:05;;;;;;;;;;;0.00;78.50;;;;;;5017132;28;19910;-85
2022/03/09 04:17:37;;;;;;;;;;;0.10;78.10;;;;;;5016817;28;19909;-85
2022/03/09 04:20:03;;;;;;;;;;;0.40;77.20;;;;;;5016885;28;19916;-85
2022/03/09 04:22:29;;;;;;;;;;;0.50;76.60;;;;;;5036807;28;19916;-85
2022/03/09 04:24:54;;;;;;;;;;;0.60;76.20;;;;;;5036472;28;19909;-85
2022/03/09 04:27:20;;;;;;;;;;;0.50;75.50;;;;;;5019204;28;19913;-85
2022/03/09 04:29:45;;;;;;;;;;;0.40;74.80;;;;;;5016339;28;20358;-86
2022/03/09 04:32:11;;;;;;;;;;;0.30;74.70;;;;;;5033761;28;19921;-85
2022/03/09 04:34:37;;;;;;;;;;;0.20;74.80;;;;;;5036309;28;19909;-85
2022/03/09 04:37:02;;;;;;;;;;;0.20;74.00;;;;;;5036282;28;19909;-85
2022/03/09 04:39:28;;;;;;;;;;;0.00;74.10;;;;;;5036211;28;19909;-85
2022/03/09 04:41:53;;;;;;;;;;;-3276.70;75.60;;;;;;5021073;28;20432;-85
2022/03/09 04:44:19;;;;;;;;;;;-3276.60;76.10;;;;;;5016406;28;19936;-84
2022/03/09 04:46:45;;;;;;;;;;;-3276.60;77.90;;;;;;5016305;28;20280;-84
2022/03/09 04:49:10;;;;;;;;;;;-3276.50;79.90;;;;;;5016223;28;19909;-85
2022/03/09 04:51:36;;;;;;;;;;;-3276.50;80.00;;;;;;5026692;28;19924;-85
2022/03/09 04:54:02;;;;;;;;;;;-3276.60;80.40;;;;;;5036160;28;19959;-85
2022/03/09 04:56:27;;;;;;;;;;;-3276.60;80.80;;;;;;5026275;28;19937;-85
2022/03/09 04:58:53;;;;;;;;;;;-3276.60;80.20;;;;;;5015371;28;19944;-85
2022/03/09 05:01:18;;;;;;;;;;;-3276.60;81.20;;;;;;5027984;28;19917;-85
2022/03/09 05:03:44;;;;;;;;;;;-3276.60;81.00;;;;;;5035681;28;20259;-85
2022/03/09 05:06:09;;;;;;;;;;;0.00;80.00;;;;;;5034394;28;20333;-85
2022/03/09 05:08:35;;;;;;;;;;;0.00;80.10;;;;;;5035576;28;20330;-85
2022/03/09 05:11:00;;;;;;;;;;;0.00;79.60;;;;;;5031610;28;19924;-85
2022/03/09 05:13:26;;;;;;;;;;;0.10;78.00;;;;;;5020535;28;20445;-85
2022/03/09 05:15:51;;;;;;;;;;;0.20;77.50;;;;;;5016026;28;19959;-85
2022/03/09 05:18:17;;;;;;;;;;;0.20;78.10;;;;;;5015737;28;19910;-85
2022/03/09 05:20:43;;;;;;;;;;;0.10;77.90;;;;;;5022314;28;20375;-85
2022/03/09 05:23:08;;;;;;;;;;;0.00;77.10;;;;;;5035350;28;19940;-84
2022/03/09 05:25:34;;;;;;;;;;;-3276.60;77.50;;;;;;5033842;28;19918;-85
2022/03/09 05:28:00;;;;;;;;;;;-3276.50;79.90;;;;;;5035013;28;20371;-85
2022/03/09 05:30:25;;;;;;;;;;;-3276.40;81.80;;;;;;5029855;28;19968;-85
2022/03/09 05:32:51;;;;;;;;;;;-3276.40;82.00;;;;;;5033043;28;20004;-85
2022/03/09 05:35:16;;;;;;;;;;;-3276.40;82.30;;;;;;5035057;28;19909;-85
2022/03/09 05:37:43;;;;;;;;;;;-3276.40;83.00;;;;;;5015535;28;19910;-85
2022/03/09 05:40:09;;;;;;;;;;;-3276.40;82.30;;;;;;5016793;28;19917;-84
2022/03/09 05:42:35;;;;;;;;;;;-3276.30;82.90;;;;;;5035294;28;19913;-84
2022/03/09 05:46:56;;;;;;;;;;;-3276.30;84.40;;;;;;5110389;27;19916;-85
2022/03/09 05:49:22;;;;;;;;;;;-3276.30;82.40;;;;;;5111043;28;19965;-85
2022/03/09 05:51:48;;;;;;;;;;;-3276.40;81.60;;;;;;5095233;28;19909;-85
2022/03/09 05:54:13;;;;;;;;;;;-3276.40;81.10;;;;;;5090602;28;20007;-85
2022/03/09 05:56:39;;;;;;;;;;;-3276.50;80.60;;;;;;5091159;28;19979;-85
2022/03/09 05:59:05;;;;;;;;;;;-3276.50;80.70;;;;;;5094648;28;19913;-85
2022/03/09 06:01:31;;;;;;;;;;;-3276.40;81.20;;;;;;5089766;28;19916;-85
2022/03/09 06:03:56;;;;;;;;;;;-3276.40;81.70;;;;;;5090355;28;19923;-85
2022/03/09 06:06:22;;;;;;;;;;;-3276.20;82.40;;;;;;5088795;28;19913;-85
2022/03/09 06:08:47;;;;;;;;;;;-3276.20;82.30;;;;;;5090019;28;20277;-85
2022/03/09 06:11:13;;;;;;;;;;;-3276.20;82.00;;;;;;5085176;28;19917;-85
2022/03/09 06:13:38;;;;;;;;;;;-3276.30;82.60;;;;;;5088017;28;19953;-85
2022/03/09 06:16:04;;;;;;;;;;;-3276.30;82.10;;;;;;5089481;28;19970;-85
2022/03/09 06:18:30;;;;;;;;;;;-3276.40;82.80;;;;;;5092946;28;19915;-85
2022/03/09 06:20:55;;;;;;;;;;;-3276.40;83.60;;;;;;5094296;28;19916;-84
2022/03/09 06:23:21;;;;;;;;;;;-3276.40;83.90;;;;;;5109621;28;19908;-85
2022/03/09 06:25:46;;;;;;;;;;;-3276.40;84.00;;;;;;5086512;28;19913;-85
2022/03/09 06:28:12;;;;;;;;;;;-3276.40;84.00;;;;;;5074520;28;19943;-85
2022/03/09 06:30:38;;;;;;;;;;;-3276.40;84.30;;;;;;5070772;28;19985;-85
2022/03/09 06:33:03;;;;;;;;;;;-3276.50;84.80;;;;;;5071341;28;20297;-85
2022/03/09 06:35:29;;;;;;;;;;;-3276.60;84.60;;;;;;5085206;28;19916;-86
2022/03/09 06:37:54;;;;;;;;;;;0.00;84.30;;;;;;5082529;28;20285;-86
2022/03/09 06:40:21;;;;;;;;;;;0.00;83.80;;;;;;5085415;28;19908;-86
2022/03/09 06:42:47;;;;;;;;;;;0.20;82.80;;;;;;5089166;28;19970;-86
2022/03/09 06:45:12;;;;;;;;;;;0.40;81.10;;;;;;5078039;28;19959;-86
2022/03/09 06:47:38;;;;;;;;;;;0.60;80.50;;;;;;5078301;28;20359;-86
2022/03/09 06:50:05;;;;;;;;;;;0.70;79.60;;;;;;5073903;28;19920;-85
2022/03/09 06:52:30;;;;;;;;;;;0.70;80.10;;;;;;5075016;28;19931;-85
2022/03/09 06:55:02;;;;;;;;;;;0.60;79.80;;;;;;5077167;28;19922;-86
2022/03/09 06:57:29;;;;;;;;;;;0.70;80.10;;;;;;5073231;28;19913;-85
2022/03/09 06:59:56;;;;;;;;;;;0.70;80.40;;;;;;5063035;28;19916;-85
2022/03/09 07:02:22;;;;;;;;;;;0.60;80.50;;;;;;5070746;28;19920;-85
2022/03/09 07:04:47;;;;;;;;;;;0.60;80.50;;;;;;5061023;28;19920;-85
2022/03/09 07:07:13;;;;;;;;;;;0.70;79.30;;;;;;5069763;28;19912;-85
2022/03/09 07:09:38;;;;;;;;;;;0.90;79.40;;;;;;5066130;28;19919;-85
2022/03/09 07:12:04;;;;;;;;;;;1.10;79.10;;;;;;5062930;28;20025;-85
2022/03/09 07:14:30;;;;;;;;;;;1.20;79.20;;;;;;5064366;28;19916;-85
2022/03/09 07:16:55;;;;;;;;;;;1.30;79.60;;;;;;5070376;28;20316;-85
2022/03/09 07:19:21;;;;;;;;;;;1.40;78.10;;;;;;5062765;28;19913;-86
2022/03/09 07:21:46;;;;;;;;;;;1.50;77.70;;;;;;5064219;28;19920;-86
2022/03/09 07:24:12;;;;;;;;;;;1.70;77.50;;;;;;5070884;28;20297;-86
2022/03/09 07:26:41;;;;;;;;;;;1.80;77.30;;;;;;5068898;28;19917;-86
2022/03/09 07:29:07;;;;;;;;;;;2.00;77.20;;;;;;5070882;28;19963;-86
2022/03/09 07:31:33;;;;;;;;;;;2.20;76.90;;;;;;5071508;28;19920;-86
2022/03/09 07:33:58;;;;;;;;;;;2.30;76.40;;;;;;5068463;28;19919;-86
2022/03/09 07:37:30;;;;;;;;;;;2.40;74.90;;;;;;5102890;27;19938;-86
2022/03/09 07:39:55;;;;;;;;;;;2.50;74.50;;;;;;5089308;28;20362;-86
2022/03/09 07:42:21;;;;;;;;;;;2.50;74.40;;;;;;5102898;28;19916;-86
2022/03/09 07:44:46;;;;;;;;;;;2.50;74.40;;;;;;5089641;28;19913;-86
2022/03/09 07:47:13;;;;;;;;;;;2.60;73.80;;;;;;5089496;28;19958;-86
2022/03/09 07:49:38;;;;;;;;;;;2.70;72.80;;;;;;5088181;28;19931;-86
2022/03/09 07:52:04;;;;;;;;;;;2.70;73.10;;;;;;5089915;28;19912;-86
2022/03/09 07:54:30;;;;;;;;;;;2.90;72.90;;;;;;5089813;28;20337;-86
2022/03/09 07:56:56;;;;;;;;;;;3.00;71.70;;;;;;5089670;28;19921;-86
2022/03/09 07:59:21;;;;;;;;;;;3.10;69.50;;;;;;5091419;28;19912;-86
2022/03/09 08:01:52;;;;;;;;;;;3.20;69.90;;;;;;5093359;28;20289;-85
2022/03/09 08:05:38;;;;;;;;;;;3.30;69.60;;;;;;5118861;27;19916;-86
2022/03/09 08:08:04;;;;;;;;;;;3.40;68.80;;;;;;5101087;28;19920;-86
2022/03/09 08:10:30;;;;;;;;;;;3.50;68.40;;;;;;5089895;28;20007;-86
2022/03/09 08:12:56;;;;;;;;;;;3.60;68.50;;;;;;5108285;28;20265;-86
2022/03/09 08:15:21;;;;;;;;;;;3.80;67.90;;;;;;5110291;28;19997;-86
2022/03/09 08:17:47;;;;;;;;;;;3.90;64.30;;;;;;5107963;28;19942;-86
2022/03/09 08:20:12;;;;;;;;;;;4.00;63.40;;;;;;5109380;28;19912;-86
2022/03/09 08:22:39;;;;;;;;;;;4.10;62.00;;;;;;5104330;28;19920;-86
2022/03/09 08:25:05;;;;;;;;;;;4.20;63.80;;;;;;5108087;27;19916;-86
2022/03/09 08:27:31;;;;;;;;;;;4.40;63.00;;;;;;5108191;28;19919;-86
2022/03/09 08:29:56;;;;;;;;;;;4.50;59.80;;;;;;5107489;28;19911;-86
2022/03/09 08:32:23;;;;;;;;;;;4.60;62.60;;;;;;5107490;28;19912;-86
2022/03/09 08:34:48;;;;;;;;;;;4.80;61.00;;;;;;5109888;28;19920;-86
2022/03/09 08:37:14;;;;;;;;;;;4.90;62.10;;;;;;5100796;28;20635;-86
2022/03/09 08:39:43;;;;;;;;;;;5.00;61.40;;;;;;5105530;28;19919;-86
2022/03/09 08:42:09;;;;;;;;;;;5.10;63.00;;;;;;5097773;28;19912;-86
2022/03/09 08:44:34;;;;;;;;;;;5.20;61.00;;;;;;5097356;28;19990;-86
2022/03/09 08:47:00;;;;;;;;;;;5.30;60.60;;;;;;5100983;28;20391;-86
2022/03/09 08:49:26;;;;;;;;;;;5.40;59.40;;;;;;5104954;28;19916;-86
2022/03/09 08:51:51;;;;;;;;;;;5.60;58.80;;;;;;5095938;28;19943;-86
2022/03/09 08:54:17;;;;;;;;;;;5.60;58.10;;;;;;5101245;28;20405;-86
2022/03/09 08:56:42;;;;;;;;;;;5.70;57.70;;;;;;5100698;28;19926;-86
2022/03/09 08:59:08;;;;;;;;;;;5.90;59.00;;;;;;5091927;28;20363;-86
2022/03/09 09:01:34;;;;;;;;;;;5.90;58.20;;;;;;5103558;28;20269;-86
2022/03/09 09:03:59;;;;;;;;;;;6.10;57.30;;;;;;5098801;28;19924;-86
2022/03/09 09:06:25;;;;;;;;;;;6.20;56.60;;;;;;5099313;28;19912;-86
2022/03/09 09:08:50;;;;;;;;;;;6.20;56.30;;;;;;5096819;28;19981;-86
2022/03/09 09:11:16;;;;;;;;;;;6.30;55.60;;;;;;5101749;28;20323;-86
2022/03/09 09:13:42;;;;;;;;;;;6.40;55.40;;;;;;5092806;28;20011;-86
2022/03/09 09:16:07;;;;;;;;;;;6.40;54.10;;;;;;5095133;28;19939;-86
2022/03/09 09:18:33;;;;;;;;;;;6.60;54.10;;;;;;5084929;28;19913;-86
2022/03/09 09:20:58;;;;;;;;;;;6.80;53.00;;;;;;5092922;28;20016;-86
2022/03/09 09:23:24;;;;;;;;;;;6.90;51.60;;;;;;5084913;28;19966;-86
2022/03/09 09:25:49;;;;;;;;;;;6.90;50.50;;;;;;5087857;28;19916;-86
2022/03/09 09:28:16;;;;;;;;;;;7.00;52.80;;;;;;5088989;28;20425;-86
2022/03/09 09:30:42;;;;;;;;;;;7.10;51.50;;;;;;5087824;28;19916;-86
2022/03/09 09:33:08;;;;;;;;;;;7.10;52.90;;;;;;5093494;28;20000;-87
2022/03/09 09:35:34;;;;;;;;;;;7.40;53.30;;;;;;5086759;28;19920;-86
2022/03/09 09:38:06;;;;;;;;;;;7.50;51.20;;;;;;5086168;28;19975;-86
2022/03/09 09:40:38;;;;;;;;;;;7.70;51.50;;;;;;5087111;28;19947;-87
2022/03/09 09:43:07;;;;;;;;;;;7.80;51.20;;;;;;5094264;28;20337;-86
2022/03/09 09:45:34;;;;;;;;;;;7.90;52.40;;;;;;5089031;28;19916;-87
2022/03/09 09:48:00;;;;;;;;;;;8.00;51.30;;;;;;5093214;28;19923;-86
2022/03/09 09:50:25;;;;;;;;;;;8.30;49.60;;;;;;5084114;28;19966;-86
2022/03/09 09:52:51;;;;;;;;;;;8.20;47.30;;;;;;5090016;28;19959;-86
2022/03/09 09:55:17;;;;;;;;;;;8.30;49.90;;;;;;5085333;28;19934;-86
2022/03/09 09:57:42;;;;;;;;;;;8.20;47.70;;;;;;5087630;28;19916;-86
2022/03/09 10:00:08;;;;;;;;;;;8.20;49.90;;;;;;5084996;28;19912;-86
2022/03/09 10:02:36;;;;;;;;;;;8.40;49.90;;;;;;5086906;28;20424;-86
2022/03/09 10:05:01;;;;;;;;;;;8.50;49.60;;;;;;5084275;28;19920;-86
2022/03/09 10:07:27;;;;;;;;;;;8.70;49.80;;;;;;5103252;28;20422;-86
2022/03/09 10:09:52;;;;;;;;;;;8.80;48.40;;;;;;5097205;28;19912;-86
2022/03/09 10:12:25;;;;;;;;;;;8.80;48.30;;;;;;5092353;28;19919;-86
2022/03/09 10:14:51;;;;;;;;;;;8.80;47.50;;;;;;5083136;28;19920;-86
2022/03/09 10:17:18;;;;;;;;;;;8.80;49.70;;;;;;5097210;28;20003;-86
2022/03/09 10:19:45;;;;;;;;;;;8.90;49.40;;;;;;5092829;28;19919;-87
2022/03/09 10:22:23;;;;;;;;;;;8.90;46.60;;;;;;5087002;28;19923;-86
2022/03/09 10:24:49;;;;;;;;;;;8.90;47.30;;;;;;5092795;28;19947;-86
2022/03/09 10:27:38;;;;;;;;;;;9.10;49.30;;;;;;5112823;28;20379;-87
2022/03/09 10:30:05;;;;;;;;;;;9.20;49.70;;;;;;5076886;28;19936;-86
2022/03/09 10:32:43;;;;;;;;;;;9.40;47.10;;;;;;5085989;28;19916;-87
2022/03/09 10:35:09;;;;;;;;;;;9.40;47.00;;;;;;5092684;28;19916;-87
2022/03/09 10:37:38;;;;;;;;;;;9.40;46.00;;;;;;5088303;28;19912;-86
2022/03/09 10:40:15;;;;;;;;;;;9.50;47.20;;;;;;5091008;28;19918;-87
2022/03/09 10:42:41;;;;;;;;;;;9.70;47.10;;;;;;5092244;28;20281;-87
2022/03/09 10:45:07;;;;;;;;;;;9.80;46.60;;;;;;5092252;28;20014;-87
2022/03/09 10:47:39;;;;;;;;;;;9.90;44.50;;;;;;5092759;28;19935;-86
2022/03/09 10:50:20;;;;;;;;;;;9.90;46.90;;;;;;5089528;28;20408;-87
2022/03/09 10:52:48;;;;;;;;;;;10.00;44.70;;;;;;5092300;28;19938;-87
2022/03/09 10:55:33;;;;;;;;;;;10.30;45.80;;;;;;5092318;28;19912;-86
2022/03/09 10:58:15;;;;;;;;;;;10.50;44.00;;;;;;5093520;28;20381;-87
2022/03/09 11:00:42;;;;;;;;;;;10.60;44.70;;;;;;5093429;28;19912;-86
2022/03/09 11:03:16;;;;;;;;;;;10.40;42.90;;;;;;5087538;28;19912;-86
2022/03/09 11:05:50;;;;;;;;;;;10.30;42.70;;;;;;5092966;28;19920;-86
2022/03/09 11:08:17;;;;;;;;;;;10.50;42.70;;;;;;5084560;28;19986;-86
2022/03/09 11:10:43;;;;;;;;;;;10.90;44.60;;;;;;5093623;28;20009;-86
2022/03/09 11:13:09;;;;;;;;;;;11.10;40.50;;;;;;5091705;28;19916;-86
2022/03/09 11:15:35;;;;;;;;;;;11.30;43.00;;;;;;5090132;28;19965;-86
2022/03/09 11:18:00;;;;;;;;;;;11.50;42.20;;;;;;5093199;28;19981;-86
2022/03/09 11:20:26;;;;;;;;;;;11.60;40.80;;;;;;5093729;28;19935;-85
2022/03/09 11:22:51;;;;;;;;;;;11.60;40.50;;;;;;5093903;28;20000;-86
2022/03/09 11:25:20;;;;;;;;;;;11.50;37.60;;;;;;5093889;28;19966;-86
2022/03/09 11:27:47;;;;;;;;;;;11.30;39.40;;;;;;5093413;28;19912;-86
2022/03/09 11:30:29;;;;;;;;;;;11.30;38.70;;;;;;5093538;28;19909;-86
2022/03/09 11:32:55;;;;;;;;;;;10.90;38.70;;;;;;5093105;28;19919;-86
2022/03/09 11:35:30;;;;;;;;;;;11.00;40.20;;;;;;5093560;28;19908;-86
2022/03/09 11:37:55;;;;;;;;;;;10.90;39.70;;;;;;5093450;28;20380;-86
2022/03/09 11:40:21;;;;;;;;;;;11.20;41.50;;;;;;5092900;28;20002;-86
2022/03/09 11:42:46;;;;;;;;;;;11.50;40.50;;;;;;5093130;28;19912;-86
2022/03/09 11:45:17;;;;;;;;;;;11.80;38.60;;;;;;5093231;28;19912;-86
2022/03/09 11:47:59;;;;;;;;;;;12.00;40.60;;;;;;5093136;28;19912;-86
2022/03/09 11:50:25;;;;;;;;;;;11.90;39.80;;;;;;5093379;28;19908;-86
2022/03/09 11:53:05;;;;;;;;;;;12.00;38.80;;;;;;5093058;28;19948;-86
2022/03/09 11:55:31;;;;;;;;;;;12.10;38.10;;;;;;5077160;28;19923;-86
2022/03/09 11:58:03;;;;;;;;;;;12.60;37.20;;;;;;5093351;28;19915;-86
2022/03/09 12:00:29;;;;;;;;;;;12.50;37.30;;;;;;5093241;28;19912;-86
2022/03/09 12:02:56;;;;;;;;;;;12.60;36.60;;;;;;5092762;28;19919;-86
2022/03/09 12:05:24;;;;;;;;;;;12.90;36.70;;;;;;5092958;28;19946;-86
2022/03/09 12:07:51;;;;;;;;;;;13.10;36.50;;;;;;5093199;28;19947;-86
2022/03/09 12:10:17;;;;;;;;;;;13.10;39.20;;;;;;5082440;28;19973;-86
2022/03/09 12:13:01;;;;;;;;;;;12.80;37.50;;;;;;5086719;28;19912;-86
2022/03/09 12:15:27;;;;;;;;;;;12.60;38.00;;;;;;5088966;28;19917;-86
2022/03/09 12:17:52;;;;;;;;;;;12.60;37.20;;;;;;5083972;28;20373;-86
2022/03/09 12:20:18;;;;;;;;;;;12.60;37.20;;;;;;5091123;28;19957;-86
2022/03/09 12:22:56;;;;;;;;;;;12.80;37.40;;;;;;5088455;28;19920;-86
2022/03/09 12:25:40;;;;;;;;;;;13.30;37.40;;;;;;5081883;28;19916;-86
2022/03/09 12:28:24;;;;;;;;;;;13.50;36.00;;;;;;5086046;28;19920;-87
2022/03/09 12:30:53;;;;;;;;;;;14.60;34.40;;;;;;5089307;28;19943;-87
2022/03/09 12:33:38;;;;;;;;;;;15.80;32.90;;;;;;5086002;28;19982;-87
2022/03/09 12:36:06;;;;;;;;;;;16.00;31.40;;;;;;5076034;28;19956;-87
2022/03/09 12:38:44;;;;;;;;;;;16.60;31.70;;;;;;5078463;28;19931;-87
2022/03/09 12:41:28;;;;;;;;;;;17.00;28.50;;;;;;5082638;28;19969;-87
2022/03/09 12:43:55;;;;;;;;;;;16.70;30.50;;;;;;5090108;28;19924;-87
2022/03/09 12:46:21;;;;;;;;;;;17.10;29.80;;;;;;5089403;28;19912;-87
2022/03/09 12:48:47;;;;;;;;;;;17.40;29.30;;;;;;5091413;28;19912;-87
2022/03/09 12:51:13;;;;;;;;;;;17.10;29.80;;;;;;5085490;28;20479;-87
2022/03/09 12:53:41;;;;;;;;;;;16.40;31.10;;;;;;5089713;28;19919;-87
2022/03/09 12:56:13;;;;;;;;;;;16.20;30.90;;;;;;5098310;28;19912;-86
2022/03/09 12:58:38;;;;;;;;;;;16.40;30.70;;;;;;5094214;28;19919;-88
2022/03/09 13:01:04;;;;;;;;;;;16.40;30.10;;;;;;5091181;28;20491;-88
2022/03/09 13:03:30;;;;;;;;;;;16.60;29.70;;;;;;5086603;28;20341;-86
2022/03/09 13:05:55;;;;;;;;;;;16.50;29.60;;;;;;5090147;28;19965;-87
2022/03/09 13:08:21;;;;;;;;;;;17.00;28.60;;;;;;5086983;28;19958;-87
2022/03/09 13:10:51;;;;;;;;;;;17.60;28.40;;;;;;5090622;28;19912;-87
2022/03/09 13:13:16;;;;;;;;;;;17.40;28.50;;;;;;5090523;28;19916;-87
2022/03/09 13:15:43;;;;;;;;;;;17.60;28.00;;;;;;5091132;28;19981;-87
2022/03/09 13:18:11;;;;;;;;;;;18.30;27.40;;;;;;5093077;28;19965;-88
2022/03/09 13:20:38;;;;;;;;;;;18.90;26.30;;;;;;5091605;28;19912;-87
2022/03/09 13:23:03;;;;;;;;;;;19.60;25.50;;;;;;5090351;28;19916;-88
2022/03/09 13:25:30;;;;;;;;;;;19.50;25.30;;;;;;5091381;28;20379;-87
2022/03/09 13:28:00;;;;;;;;;;;19.80;25.40;;;;;;5092708;28;19928;-87
2022/03/09 13:30:25;;;;;;;;;;;18.70;27.30;;;;;;5091887;28;20441;-87
2022/03/09 13:32:51;;;;;;;;;;;18.30;26.90;;;;;;5090607;28;20010;-86
2022/03/09 13:35:25;;;;;;;;;;;17.90;27.60;;;;;;5091362;28;20003;-87
2022/03/09 13:38:01;;;;;;;;;;;17.80;28.50;;;;;;5083437;28;19916;-87
2022/03/09 13:40:27;;;;;;;;;;;18.10;28.60;;;;;;5092269;28;19958;-87
2022/03/09 13:42:54;;;;;;;;;;;19.30;27.40;;;;;;5086517;28;19916;-88
2022/03/09 13:45:25;;;;;;;;;;;19.50;25.00;;;;;;5089797;28;19916;-87
2022/03/09 13:47:55;;;;;;;;;;;19.70;24.70;;;;;;5085994;28;19912;-87
2022/03/09 13:50:48;;;;;;;;;;;19.80;24.10;;;;;;5088718;28;19978;-87
2022/03/09 13:53:14;;;;;;;;;;;19.90;23.60;;;;;;5089939;28;19966;-87
2022/03/09 13:55:44;;;;;;;;;;;19.90;24.40;;;;;;5093750;28;19912;-87
2022/03/09 13:58:13;;;;;;;;;;;20.90;23.30;;;;;;5088453;28;19970;-86
2022/03/09 14:00:39;;;;;;;;;;;20.10;23.00;;;;;;5085884;28;19920;-87
2022/03/09 14:03:13;;;;;;;;;;;20.20;23.10;;;;;;5085649;28;19912;-87
2022/03/09 14:05:39;;;;;;;;;;;19.70;22.80;;;;;;5089300;28;19943;-87
2022/03/09 14:08:05;;;;;;;;;;;18.70;23.70;;;;;;5083018;28;19919;-87
2022/03/09 14:10:36;;;;;;;;;;;19.10;23.00;;;;;;5090485;28;20003;-87
2022/03/09 14:13:11;;;;;;;;;;;19.20;23.70;;;;;;5082960;28;19912;-87
2022/03/09 14:15:37;;;;;;;;;;;18.60;23.40;;;;;;5091335;28;20407;-87
2022/03/09 14:18:03;;;;;;;;;;;19.70;23.00;;;;;;5086358;28;19916;-87
2022/03/09 14:20:28;;;;;;;;;;;20.80;22.40;;;;;;5088100;28;19981;-87
2022/03/09 14:22:54;;;;;;;;;;;21.10;21.50;;;;;;5087168;28;19918;-88
2022/03/09 14:25:19;;;;;;;;;;;21.90;20.30;;;;;;5086121;28;20377;-87
2022/03/09 14:27:46;;;;;;;;;;;22.30;20.40;;;;;;5092395;28;20366;-87